createdAt,value
2018-12-03T00:02:23.022Z,20.20
2018-12-03T00:04:52.354Z,20.55
2018-12-03T00:07:21.717Z,19.53
2018-12-03T00:09:51.062Z,20.87
2018-12-03T00:12:20.424Z,18.20
2018-12-03T00:14:49.736Z,22.33
2018-12-03T00:20:45.323Z,20.40
2018-12-03T00:23:35.531Z,21.27
2018-12-03T00:26:19.055Z,21.60
2018-12-03T00:29:09.592Z,21.00
2018-12-03T00:31:41.110Z,21.07
2018-12-03T00:34:50.626Z,24.50
2018-12-03T00:37:42.062Z,25.93
2018-12-03T00:40:24.741Z,22.83
2018-12-03T00:43:15.296Z,24.00
2018-12-03T00:45:57.528Z,22.93
2018-12-03T00:48:47.769Z,23.87
2018-12-03T00:51:31.675Z,26.43
2018-12-03T01:00:18.549Z,26.00
2018-12-03T01:03:09.036Z,24.57
2018-12-03T01:05:51.937Z,27.47
2018-12-03T01:08:42.120Z,28.30
2018-12-03T01:11:23.856Z,26.83
2018-12-03T01:14:06.421Z,36.50
2018-12-03T01:16:49.756Z,30.43
2018-12-03T01:19:39.940Z,32.10
2018-12-03T01:22:22.867Z,28.17
2018-12-03T01:25:13.340Z,29.63
2018-12-03T01:27:44.999Z,31.10
2018-12-03T01:30:35.403Z,33.78
2018-12-03T01:33:26.573Z,32.53
2018-12-03T01:36:09.403Z,29.63
2018-12-03T01:38:41.819Z,28.33
2018-12-03T01:41:13.162Z,36.27
2018-12-03T01:43:44.458Z,34.40
2018-12-03T01:46:34.962Z,32.03
2018-12-03T01:49:20.251Z,29.37
2018-12-03T01:52:10.525Z,31.63
2018-12-03T01:54:53.566Z,33.23
2018-12-03T01:57:46.266Z,34.37
2018-12-03T02:00:30.019Z,35.70
2018-12-03T02:03:20.492Z,31.63
2018-12-03T02:06:03.607Z,35.63
2018-12-03T02:09:12.945Z,34.67
2018-12-03T02:11:58.063Z,36.27
2018-12-03T02:14:48.966Z,40.40
2018-12-03T02:17:33.714Z,36.07
2018-12-03T02:20:24.076Z,37.63
2018-12-03T02:23:09.580Z,33.57
2018-12-03T02:25:41.181Z,38.67
2018-12-03T02:28:31.417Z,38.13
2018-12-03T02:31:16.468Z,40.75
2018-12-03T02:33:59.164Z,37.00
2018-12-03T02:36:49.734Z,36.25
2018-12-03T02:39:33.244Z,39.58
2018-12-03T02:42:23.525Z,33.90
2018-12-03T02:45:06.633Z,37.53
2018-12-03T02:54:10.890Z,36.37
2018-12-03T02:56:53.897Z,36.90
2018-12-03T02:59:38.296Z,41.90
2018-12-03T03:02:28.786Z,45.20
2018-12-03T03:08:13.862Z,37.53
2018-12-03T03:10:59.009Z,34.73
2018-12-03T03:13:49.241Z,39.77
2018-12-03T03:16:33.237Z,43.50
2018-12-03T03:19:23.601Z,40.47
2018-12-03T03:22:08.639Z,37.70
2018-12-03T03:25:20.041Z,38.90
2018-12-03T03:28:18.936Z,41.70
2018-12-03T03:30:40.269Z,37.70
2018-12-03T03:33:23.427Z,41.03
2018-12-03T03:36:13.959Z,40.70
2018-12-03T03:38:58.240Z,36.40
2018-12-03T03:41:48.802Z,41.43
2018-12-03T03:44:40.138Z,37.90
2018-12-03T03:47:23.698Z,39.90
2018-12-03T03:53:05.147Z,36.80
2018-12-03T03:55:56.302Z,36.73
2018-12-03T03:58:39.663Z,36.60
2018-12-03T04:04:21.087Z,40.77
2018-12-03T04:10:44.613Z,38.00
2018-12-03T04:13:54.914Z,35.90
2018-12-03T04:16:39.765Z,40.43
2018-12-03T04:23:17.333Z,39.67
2018-12-03T04:25:54.781Z,38.43
2018-12-03T04:31:22.208Z,48.30
2018-12-03T04:51:08.884Z,33.67
2018-12-03T04:59:57.145Z,35.47
2018-12-03T05:11:53.702Z,37.07
2018-12-03T05:17:49.108Z,32.98
2018-12-03T05:26:53.512Z,32.67
2018-12-03T05:29:42.609Z,30.05
2018-12-03T05:32:25.964Z,32.57
2018-12-03T05:35:35.970Z,30.80
2018-12-03T05:38:19.197Z,30.33
2018-12-03T05:41:12.588Z,29.23
2018-12-03T05:43:55.896Z,33.93
2018-12-03T05:46:46.362Z,31.37
2018-12-03T05:49:29.625Z,32.53
2018-12-03T05:52:20.063Z,31.90
2018-12-03T05:55:04.125Z,32.98
2018-12-03T05:57:54.253Z,31.27
2018-12-03T06:00:37.706Z,29.20
2018-12-03T06:03:27.901Z,30.97
2018-12-03T06:05:59.547Z,30.08
2018-12-03T06:08:33.718Z,27.17
2018-12-03T06:11:23.830Z,27.87
2018-12-03T06:14:14.213Z,30.17
2018-12-03T06:17:00.665Z,28.23
2018-12-03T06:19:51.174Z,29.73
2018-12-03T06:22:44.677Z,30.23
2018-12-03T06:25:48.975Z,26.97
2018-12-03T06:28:19.842Z,28.27
2018-12-03T06:31:10.034Z,26.83
2018-12-03T06:33:53.420Z,26.27
2018-12-03T06:42:20.760Z,20.87
2018-12-03T06:45:12.885Z,22.53
2018-12-03T06:48:04.868Z,19.40
2018-12-03T06:53:16.792Z,18.77
2018-12-03T06:56:20.637Z,17.95
2018-12-03T06:58:50.920Z,19.13
2018-12-03T07:01:41.305Z,16.63
2018-12-03T07:04:23.380Z,16.57
2018-12-03T07:07:13.492Z,19.13
2018-12-03T07:09:56.591Z,15.23
2018-12-03T07:12:27.772Z,17.13
2018-12-03T07:15:24.557Z,18.37
2018-12-03T07:18:07.865Z,17.27
2018-12-03T07:20:57.970Z,16.57
2018-12-03T07:23:40.986Z,18.73
2018-12-03T07:29:52.898Z,17.27
2018-12-03T07:32:33.177Z,17.37
2018-12-03T07:35:43.425Z,18.80
2018-12-03T07:38:26.348Z,20.60
2018-12-03T07:41:35.930Z,18.75
2018-12-03T07:44:18.786Z,19.57
2018-12-03T07:47:09.416Z,12.47
2018-12-03T07:49:59.694Z,15.50
2018-12-03T07:53:09.020Z,17.47
2018-12-03T07:55:52.125Z,13.63
2018-12-03T07:58:42.536Z,15.73
2018-12-03T08:01:24.349Z,16.53
2018-12-03T08:04:05.847Z,18.23
2018-12-03T08:06:47.993Z,14.30
2018-12-03T08:09:38.069Z,15.93
2018-12-03T08:12:21.599Z,17.73
2018-12-03T08:15:30.837Z,16.37
2018-12-03T08:18:09.981Z,18.53
2018-12-03T08:21:19.227Z,17.67
2018-12-03T08:24:14.087Z,20.50
2018-12-03T08:27:01.006Z,16.50
2018-12-03T08:29:54.914Z,15.77
2018-12-03T08:32:37.334Z,13.73
2018-12-03T08:35:30.183Z,14.87
2018-12-03T08:38:12.782Z,13.23
2018-12-03T08:41:06.288Z,14.53
2018-12-03T08:46:39.777Z,18.20
2018-12-03T08:49:30.129Z,13.80
2018-12-03T08:52:13.251Z,20.05
2018-12-03T08:58:25.803Z,19.27
2018-12-03T09:01:15.119Z,17.83
2018-12-03T09:04:08.330Z,18.37
2018-12-03T09:06:51.364Z,15.77
2018-12-03T09:09:43.871Z,18.00
2018-12-03T09:12:26.747Z,18.50
2018-12-03T09:15:17.087Z,18.10
2018-12-03T09:18:00.006Z,26.00
2018-12-03T09:20:50.059Z,18.47
2018-12-03T09:23:32.584Z,18.63
2018-12-03T09:26:22.660Z,24.03
2018-12-03T09:29:05.174Z,19.53
2018-12-03T09:31:55.557Z,24.23
2018-12-03T09:34:38.230Z,24.37
2018-12-03T09:37:29.548Z,21.17
2018-12-03T09:40:15.720Z,18.60
2018-12-03T09:43:05.992Z,18.90
2018-12-03T09:48:40.783Z,17.30
2018-12-03T09:51:50.098Z,22.73
2018-12-03T09:54:36.252Z,22.47
2018-12-03T09:57:26.657Z,15.33
2018-12-03T10:00:11.907Z,24.73
2018-12-03T10:03:04.582Z,23.60
2018-12-03T10:05:47.744Z,18.53
2018-12-03T10:08:37.805Z,18.47
2018-12-03T10:11:19.984Z,24.37
2018-12-03T10:14:14.997Z,23.00
2018-12-03T10:16:54.334Z,21.95
2018-12-03T10:22:50.922Z,22.87
2018-12-03T10:25:41.245Z,18.37
2018-12-03T10:31:26.240Z,18.37
2018-12-03T10:34:36.989Z,20.70
2018-12-03T10:37:20.375Z,24.23
2018-12-03T10:40:29.550Z,18.40
2018-12-03T10:43:12.314Z,19.63
2018-12-03T10:46:03.377Z,16.90
2018-12-03T10:48:46.723Z,15.83
2018-12-03T10:51:29.629Z,16.90
2018-12-03T10:54:19.710Z,26.23
2018-12-03T10:57:03.574Z,20.33
2018-12-03T10:59:55.719Z,21.23
2018-12-03T11:02:57.810Z,20.70
2018-12-03T11:06:06.770Z,16.90
2018-12-03T11:08:48.785Z,20.40
2018-12-03T11:14:28.519Z,19.60
2018-12-03T11:17:18.882Z,23.17
2018-12-03T11:20:01.004Z,14.95
2018-12-03T11:22:51.148Z,18.97
2018-12-03T11:25:27.779Z,17.97
2018-12-03T11:31:40.189Z,17.80
2018-12-03T11:34:23.440Z,24.02
2018-12-03T11:37:32.611Z,22.00
2018-12-03T11:40:28.181Z,23.13
2018-12-03T11:43:10.863Z,19.80
2018-12-03T11:46:01.132Z,21.70
2018-12-03T11:48:32.354Z,28.37
2018-12-03T11:54:24.692Z,18.23
2018-12-03T11:57:15.029Z,17.87
2018-12-03T11:59:57.469Z,19.03
2018-12-03T12:02:47.819Z,17.40
2018-12-03T12:05:31.043Z,20.33
2018-12-03T12:08:21.194Z,25.50
2018-12-03T12:11:03.593Z,18.87
2018-12-03T12:13:55.672Z,19.70
2018-12-03T12:16:39.572Z,20.53
2018-12-03T12:19:29.685Z,20.70
2018-12-03T12:22:12.147Z,20.30
2018-12-03T12:28:07.200Z,21.60
2018-12-03T12:30:57.600Z,18.57
2018-12-03T12:33:40.425Z,26.03
2018-12-03T12:36:30.747Z,20.23
2018-12-03T12:39:01.960Z,24.60
2018-12-03T12:41:52.034Z,22.90
2018-12-03T12:44:37.404Z,28.80
2018-12-03T12:47:27.800Z,18.87
2018-12-03T12:50:11.799Z,22.07
2018-12-03T12:53:01.901Z,20.63
2018-12-03T12:55:44.486Z,24.60
2018-12-03T12:58:34.588Z,21.40
2018-12-03T13:01:17.400Z,22.50
2018-12-03T13:06:44.991Z,20.83
2018-12-03T13:09:35.133Z,21.40
2018-12-03T13:12:25.151Z,20.90
2018-12-03T13:15:09.562Z,28.17
2018-12-03T13:17:59.939Z,21.60
2018-12-03T13:20:43.469Z,18.93
2018-12-03T13:26:42.267Z,23.02
2018-12-03T13:29:32.722Z,18.50
2018-12-03T13:32:22.831Z,22.32
2018-12-03T13:35:13.816Z,18.87
2018-12-03T13:37:56.619Z,18.17
2018-12-03T13:40:39.228Z,24.70
2018-12-03T13:43:29.335Z,21.20
2018-12-03T13:46:11.464Z,20.80
2018-12-03T13:49:01.529Z,21.50
2018-12-03T13:51:48.070Z,21.40
2018-12-03T13:54:38.404Z,22.40
2018-12-03T13:57:20.739Z,24.57
2018-12-03T14:00:29.717Z,18.77
2018-12-03T14:03:13.404Z,24.23
2018-12-03T14:06:41.776Z,21.93
2018-12-03T14:09:44.768Z,22.73
2018-12-03T14:12:58.636Z,22.63
2018-12-03T14:16:00.427Z,23.00
2018-12-03T14:18:56.740Z,24.10
2018-12-03T14:21:51.292Z,25.12
2018-12-03T14:24:41.955Z,29.83
2018-12-03T14:27:24.019Z,21.03
2018-12-03T14:30:15.010Z,20.77
2018-12-03T14:32:58.743Z,14.65
2018-12-03T14:35:41.049Z,21.70
2018-12-03T14:38:12.173Z,16.70
2018-12-03T14:40:43.372Z,19.70
2018-12-03T14:43:33.433Z,18.20
2018-12-03T14:46:15.821Z,19.53
2018-12-03T14:48:47.037Z,17.40
2018-12-03T14:51:37.140Z,19.12
2018-12-03T14:54:08.319Z,22.83
2018-12-03T14:56:58.461Z,25.07
2018-12-03T14:59:43.277Z,21.73
2018-12-03T15:02:33.764Z,22.63
2018-12-03T15:05:05.094Z,26.20
2018-12-03T15:08:09.289Z,19.77
2018-12-03T15:10:39.426Z,23.97
2018-12-03T15:13:29.532Z,23.30
2018-12-03T15:16:12.251Z,28.03
2018-12-03T15:19:02.354Z,22.30
2018-12-03T15:21:44.587Z,19.90
2018-12-03T15:24:34.981Z,23.25
2018-12-03T15:27:17.929Z,28.20
2018-12-03T15:30:09.907Z,30.70
2018-12-03T15:32:52.602Z,22.80
2018-12-03T15:35:23.920Z,25.48
2018-12-03T15:38:14.027Z,21.87
2018-12-03T15:40:57.070Z,20.43
2018-12-03T15:43:47.803Z,26.00
2018-12-03T15:46:30.270Z,21.93
2018-12-03T15:49:20.329Z,31.00
2018-12-03T15:54:58.137Z,21.17
2018-12-03T15:57:48.238Z,24.90
2018-12-03T16:00:30.460Z,21.37
2018-12-03T16:03:20.850Z,27.23
2018-12-03T16:06:03.705Z,25.37
2018-12-03T16:08:35.338Z,24.65
2018-12-03T16:11:25.743Z,20.90
2018-12-03T16:14:16.169Z,24.60
2018-12-03T16:16:58.391Z,25.40
2018-12-03T16:19:48.428Z,25.30
2018-12-03T16:22:30.989Z,33.63
2018-12-03T16:25:21.065Z,33.10
2018-12-03T16:28:03.655Z,33.17
2018-12-03T16:30:53.866Z,38.83
2018-12-03T16:33:41.852Z,27.30
2018-12-03T16:36:24.737Z,31.37
2018-12-03T16:39:15.229Z,34.25
2018-12-03T16:41:57.457Z,27.40
2018-12-03T16:44:47.520Z,22.70
2018-12-03T16:47:18.658Z,34.03
2018-12-03T16:50:10.355Z,29.83
2018-12-03T16:52:53.365Z,28.77
2018-12-03T16:55:43.419Z,35.10
2018-12-03T16:58:26.066Z,28.10
2018-12-03T17:00:57.262Z,31.93
2018-12-03T17:06:35.789Z,33.83
2018-12-03T17:09:26.100Z,31.30
2018-12-03T17:15:00.488Z,29.43
2018-12-03T17:17:50.891Z,35.90
2018-12-03T17:26:55.871Z,38.10
2018-12-03T17:29:27.496Z,32.70
2018-12-03T17:35:13.717Z,32.23
2018-12-03T17:37:56.127Z,36.97
2018-12-03T17:40:27.456Z,29.15
2018-12-03T17:43:17.833Z,30.77
2018-12-03T17:46:08.194Z,43.30
2018-12-03T17:52:26.102Z,42.73
2018-12-03T17:55:16.897Z,32.85
2018-12-03T18:01:04.114Z,34.70
2018-12-03T18:03:46.342Z,33.93
2018-12-03T18:09:50.861Z,31.20
2018-12-03T18:12:40.983Z,35.83
2018-12-03T18:15:27.487Z,30.40
2018-12-03T18:18:11.396Z,40.23
2018-12-03T18:21:01.526Z,34.33
2018-12-03T18:23:48.321Z,35.53
2018-12-03T18:26:38.523Z,33.83
2018-12-03T18:29:22.894Z,32.17
2018-12-03T18:32:14.138Z,35.47
2018-12-03T18:37:59.008Z,32.90
2018-12-03T18:41:35.087Z,34.15
2018-12-03T18:43:58.472Z,35.33
2018-12-03T18:46:30.970Z,37.33
2018-12-03T18:49:44.836Z,31.27
2018-12-03T18:53:14.872Z,31.90
2018-12-03T18:55:59.639Z,32.85
2018-12-03T19:02:06.133Z,33.80
2018-12-03T19:04:57.456Z,44.03
2018-12-03T19:07:40.933Z,34.17
2018-12-03T19:10:31.406Z,32.70
2018-12-03T19:13:14.209Z,31.93
2018-12-03T19:16:04.580Z,38.17
2018-12-03T19:18:47.404Z,30.95
2018-12-03T19:21:37.490Z,32.57
2018-12-03T19:24:19.883Z,28.90
2018-12-03T19:27:10.309Z,31.63
2018-12-03T19:29:53.711Z,32.23
2018-12-03T19:32:43.893Z,36.38
2018-12-03T19:35:26.766Z,38.67
2018-12-03T19:38:19.297Z,30.43
2018-12-03T19:43:58.092Z,30.65
2018-12-03T19:46:49.075Z,36.60
2018-12-03T19:49:32.268Z,28.07
2018-12-03T19:55:24.682Z,31.63
2018-12-03T19:58:12.297Z,30.10
2018-12-03T20:01:02.562Z,23.43
2018-12-03T20:03:36.727Z,24.30
2018-12-03T20:06:27.395Z,28.38
2018-12-03T20:09:10.040Z,27.53
2018-12-03T20:21:28.499Z,27.42
2018-12-03T20:24:22.191Z,30.17
2018-12-03T20:30:51.732Z,34.50
2018-12-03T20:33:38.180Z,35.90
2018-12-03T20:39:56.553Z,30.40
2018-12-03T20:46:31.827Z,31.07
2018-12-03T20:49:36.183Z,27.57
2018-12-03T20:58:53.630Z,22.77
2018-12-03T21:01:38.115Z,15.43
2018-12-03T21:08:01.275Z,8.70
2018-12-03T21:10:51.841Z,13.43
2018-12-03T21:16:50.329Z,14.93
2018-12-03T21:19:41.494Z,11.80
2018-12-03T21:22:24.623Z,9.85
2018-12-03T21:25:15.090Z,13.17
2018-12-03T21:27:57.840Z,8.00
2018-12-03T21:30:48.443Z,12.05
2018-12-03T21:33:32.107Z,11.00
2018-12-03T21:36:28.892Z,7.97
2018-12-03T21:39:13.487Z,15.73
2018-12-03T21:41:55.971Z,8.50
2018-12-03T21:44:46.607Z,11.40
2018-12-03T21:47:33.039Z,9.70
2018-12-03T21:50:23.207Z,10.73
2018-12-03T21:53:52.878Z,11.43
2018-12-03T21:56:35.408Z,10.73
2018-12-03T21:59:26.481Z,8.63
2018-12-03T22:02:09.917Z,11.13
2018-12-03T22:05:00.087Z,12.90
2018-12-03T22:07:42.613Z,9.60
2018-12-03T22:10:32.956Z,7.78
2018-12-03T22:13:18.195Z,7.20
2018-12-03T22:16:08.577Z,5.90
2018-12-03T22:18:51.794Z,5.67
2018-12-03T22:21:42.246Z,10.27
2018-12-03T22:24:25.679Z,7.90
2018-12-03T22:27:16.107Z,9.83
2018-12-03T22:30:01.578Z,8.75
2018-12-03T22:33:10.878Z,8.33
2018-12-03T22:35:54.001Z,9.77
2018-12-03T22:38:44.389Z,5.37
2018-12-03T22:41:26.832Z,13.60
2018-12-03T22:44:17.010Z,6.07
2018-12-03T22:46:48.792Z,9.47
2018-12-03T22:49:41.930Z,6.03
2018-12-03T22:52:32.206Z,9.50
2018-12-03T22:55:22.402Z,8.60
2018-12-03T22:58:05.639Z,9.77
2018-12-03T23:01:14.939Z,7.90
2018-12-03T23:03:57.461Z,9.48
2018-12-03T23:06:47.850Z,7.20
2018-12-03T23:09:30.700Z,7.03
2018-12-03T23:12:20.804Z,11.63
2018-12-03T23:15:03.755Z,5.40
2018-12-03T23:17:53.787Z,10.53
2018-12-03T23:20:25.353Z,10.20
2018-12-03T23:23:15.722Z,11.78
2018-12-03T23:25:58.841Z,10.95
2018-12-03T23:28:30.131Z,12.13
2018-12-03T23:31:20.213Z,9.90
2018-12-03T23:34:02.836Z,7.10
2018-12-03T23:36:53.383Z,10.53
2018-12-03T23:39:35.858Z,11.50
2018-12-03T23:42:26.526Z,15.57
2018-12-03T23:45:09.824Z,12.30
2018-12-03T23:48:00.170Z,9.07
2018-12-03T23:50:42.739Z,6.63
2018-12-03T23:53:27.099Z,8.77
2018-12-03T23:56:17.093Z,13.17
2018-12-03T23:58:59.265Z,10.70
